Aviation Digital Data Service (ADDS)

Output produced by METARs form (0603 UTC 25 June 2018)
found at http://www.aviationweather.gov/adds/metars/
 
METAR text: KCOU 250554Z AUTO 05005KT 10SM CLR 22/20 A2993 RMK AO2 SLP126 T02170200 10261 20206 402890189 56007
Conditions at: KCOU (COLUMBIA , MO, US) observed 0554 UTC 25 June 2018
Temperature: 21.7°C (71°F)
Dewpoint: 20.0°C (68°F) [RH = 90%]
Pressure (altimeter): 29.93 inches Hg (1013.6 mb)
[Sea-level pressure: 1012.6 mb]
Winds: from the NE (50 degrees) at 6 MPH (5 knots; 2.6 m/s)
Visibility: 10 or more miles (16+ km)
Ceiling: at least 12,000 feet AGL
Clouds: sky clear below 12,000 feet AGL
Weather: automated observation with no human augmentation;
there may or may not be significant weather present at this time